Startpagina
METAR-TAF:

METAR-TAF

Vliegvelden :

Alice Springs, Australië

breedte: 23-48S, lengte: 133-53E, hoogte: 545 m

Actueel weer

Dit bericht is 42 minuten geleden gemaakt, om 15:30 UTC
Wind 5 kt uit het noordwesten
Temperatuur 22°C
Vochtigheid 20%
Druk 1012 hPa
Zicht 10 km of meer

METAR: YBAS 261530Z AUTO 32005KT 9999 // NCD 22/M02 Q1012 RF00.0/000.0

Tijdstip: 01:42 (16:12 UTC)

Verwachting

Dit bericht is 4 uur en het 49 minuten geleden gemaakt, om 11:23 UTC
Verwachting geldig van 26 om 12 UTC tot 27 om 12 UTC
Wind 6 kt uit het noordnoordwesten
Zicht 10 km of meer
geen wolken onder 1500 m en geen cumulonimbus
Van 27 om 0200 UTC
Wind 16 kt uit het noordwesten met uitschieters tot 26 kt
Zicht: 8000 m
Stuifstof
Van 27 om 0900 UTC
Wind 10 kt uit het westen
Zicht 10 km of meer

TAF: YBAS 261123Z 2612/2712 33006KT CAVOK FM270200 31016G26KT 8000 BLDU NSC FM270900 28010KT 9999 NSW NSC

Waarnemingen en weersverwachtingen van meer dan 4000 vliegvelden (METAR en TAF).

De beschikbare stations zijn de gele en rode punten op de kaart.

Ga met uw muis naar het station om de naam te zien.

Klik dan om waarnemingen en weersverwachtingen te zien.

kaart wijzigen: klik op de groene knoppen met een zwart kruis om in te zoomen, op de groene knop met een streepje om uit te zoomen of op de groene pijlen voor aangrenzende kaarten.


METAR-TAF: